Time;durP1;ratioP1;P1;durP2;ratioP2;P2;SDS_P1;SDS_P2;PMS_P1;PMS_P2;Temp;Humidity;BMP_temperature;BMP_pressure;BME280_temperature;BME280_humidity;BME280_pressure;Samples;Min_cycle;Max_cycle;Signal;HPM_P1;HPM_P2
2023/01/02 00:09:04;;;;;;;;;;;;;;;;;;;;;
2023/01/02 00:15:03;;;;;;;19.10;12.17;;;9.70;92.70;;;;;;4994635;28;20197;-91
2023/01/02 00:24:14;;;;;;;16.63;12.50;;;9.80;93.10;;;;;;5240062;22;20714;-91
2023/01/02 00:26:39;;;;;;;16.93;13.53;;;9.80;93.30;;;;;;4997223;28;20173;-90
2023/01/02 00:29:45;;;;;;;15.40;13.40;;;9.90;93.30;;;;;;4995754;28;20182;-90
2023/01/02 00:32:10;;;;;;;18.20;12.80;;;9.90;93.30;;;;;;5013050;28;20213;-91
2023/01/02 00:34:56;;;;;;;17.80;14.90;;;9.90;93.30;;;;;;4995888;28;20316;-91
2023/01/02 00:37:44;;;;;;;20.93;15.20;;;9.90;93.30;;;;;;5000034;28;20165;-91
2023/01/02 00:40:21;;;;;;;16.43;14.83;;;9.80;93.30;;;;;;5017318;28;20256;-91
2023/01/02 00:46:55;;;;;;;17.17;15.30;;;9.90;93.40;;;;;;5017158;28;20157;-91
2023/01/02 00:49:27;;;;;;;19.53;15.77;;;9.90;93.40;;;;;;5015340;28;20177;-91
2023/01/02 00:51:52;;;;;;;19.90;16.80;;;9.80;93.40;;;;;;4999329;28;20209;-92
2023/01/02 00:54:21;;;;;;;20.37;17.20;;;9.80;93.40;;;;;;5000399;28;20581;-91
2023/01/02 00:56:55;;;;;;;19.47;16.30;;;9.80;93.40;;;;;;5000396;28;20170;-91
2023/01/02 00:59:49;;;;;;;24.00;17.63;;;9.80;93.40;;;;;;4999612;28;20642;-91
2023/01/02 01:04:53;;;;;;;19.23;17.20;;;9.90;93.50;;;;;;5259909;22;20307;-91
2023/01/02 01:07:18;;;;;;;21.87;18.13;;;9.90;93.60;;;;;;5000469;28;20184;-91
2023/01/02 01:10:31;;;;;;;21.03;18.77;;;9.90;93.60;;;;;;5000724;28;20169;-91
2023/01/02 01:17:13;;;;;;;21.33;19.23;;;9.90;93.70;;;;;;4918557;29;20232;-91
2023/01/02 01:19:48;;;;;;;21.17;19.23;;;9.90;93.70;;;;;;4877117;29;20179;-91
2023/01/02 01:28:07;;;;;;;21.07;18.97;;;10.00;93.80;;;;;;5140074;22;20299;-92
2023/01/02 01:30:48;;;;;;;21.77;19.07;;;10.00;93.80;;;;;;4998200;28;20189;-90
2023/01/02 01:33:20;;;;;;;21.53;19.43;;;9.90;93.90;;;;;;5070810;23;20235;-91
2023/01/02 01:36:31;;;;;;;21.00;19.13;;;10.00;94.00;;;;;;5034613;28;20235;-92
2023/01/02 01:43:12;;;;;;;23.23;20.77;;;10.10;94.10;;;;;;4997175;28;20240;-92
2023/01/02 01:46:32;;;;;;;22.37;20.43;;;10.00;94.10;;;;;;5017356;28;20176;-92
2023/01/02 01:49:45;;;;;;;23.53;19.37;;;10.10;94.10;;;;;;5017751;28;20178;-91
2023/01/02 01:52:19;;;;;;;22.30;19.20;;;10.00;94.20;;;;;;5019898;28;20216;-92
2023/01/02 01:54:53;;;;;;;20.50;18.70;;;10.00;94.20;;;;;;5021029;28;20165;-92
2023/01/02 01:57:32;;;;;;;20.40;18.47;;;10.00;94.30;;;;;;5023252;28;20176;-92
2023/01/02 01:59:59;;;;;;;21.40;19.40;;;10.10;94.30;;;;;;5023770;28;20237;-92
2023/01/02 02:02:27;;;;;;;23.27;20.50;;;10.00;94.30;;;;;;5024912;28;20193;-92
2023/01/02 02:04:54;;;;;;;24.17;21.90;;;10.00;94.30;;;;;;5024875;28;20208;-92
2023/01/02 02:07:20;;;;;;;24.27;22.30;;;10.20;94.40;;;;;;5024292;28;20177;-92
2023/01/02 02:09:58;;;;;;;23.87;21.70;;;10.10;94.30;;;;;;5023747;28;20185;-91
2023/01/02 02:12:24;;;;;;;23.00;21.30;;;10.10;94.30;;;;;;5021498;28;20213;-92
2023/01/02 02:14:55;;;;;;;23.07;21.13;;;10.00;94.30;;;;;;5017965;28;20535;-92
2023/01/02 02:17:27;;;;;;;23.43;21.13;;;10.00;94.40;;;;;;5014844;28;20177;-91
2023/01/02 02:20:24;;;;;;;30.00;21.70;;;10.00;94.40;;;;;;5016898;28;20177;-92
2023/01/02 02:38:53;;;;;;;23.33;21.17;;;10.10;94.50;;;;;;5172335;22;20247;-91
2023/01/02 02:41:34;;;;;;;22.90;20.10;;;10.10;94.60;;;;;;4999163;28;20212;-92
2023/01/02 02:44:14;;;;;;;25.73;21.23;;;10.10;94.70;;;;;;4979351;28;20177;-92
2023/01/02 02:47:01;;;;;;;22.63;20.43;;;10.10;94.70;;;;;;4978807;28;20173;-92
2023/01/02 02:49:46;;;;;;;25.10;22.50;;;10.10;94.70;;;;;;4979022;28;20178;-92
2023/01/02 02:52:27;;;;;;;23.93;21.73;;;10.10;94.80;;;;;;4978865;28;20205;-91
2023/01/02 02:55:01;;;;;;;26.17;23.77;;;10.10;94.80;;;;;;4979520;28;20161;-92
2023/01/02 02:57:29;;;;;;;27.00;24.67;;;10.10;94.90;;;;;;4979621;28;20166;-91
2023/01/02 02:59:54;;;;;;;24.63;22.33;;;10.10;94.90;;;;;;4980099;28;20196;-92
2023/01/02 03:02:20;;;;;;;31.50;28.33;;;10.10;95.00;;;;;;4978964;28;20704;-92
2023/01/02 03:04:50;;;;;;;34.07;31.07;;;10.20;95.00;;;;;;4978730;28;20703;-91
2023/01/02 03:07:20;;;;;;;34.30;30.73;;;10.10;95.00;;;;;;4978801;28;20182;-92
2023/01/02 03:10:13;;;;;;;34.13;31.37;;;10.20;95.10;;;;;;4978838;28;20170;-92
2023/01/02 03:12:48;;;;;;;35.63;32.63;;;10.10;95.10;;;;;;4978782;28;20358;-91
2023/01/02 03:15:23;;;;;;;37.77;34.23;;;10.10;95.10;;;;;;4978818;28;20173;-91
2023/01/02 03:18:11;;;;;;;36.73;33.57;;;10.10;95.10;;;;;;4978211;28;20166;-91
2023/01/02 03:20:40;;;;;;;37.43;34.03;;;10.10;95.10;;;;;;4979748;28;20174;-91
2023/01/02 03:23:12;;;;;;;40.10;36.47;;;10.10;95.10;;;;;;4979177;28;20268;-92
2023/01/02 03:25:38;;;;;;;38.20;34.90;;;10.10;95.10;;;;;;4980165;28;20166;-92
2023/01/02 03:28:07;;;;;;;37.83;34.63;;;10.20;95.20;;;;;;4979520;28;20171;-92
2023/01/02 03:30:36;;;;;;;37.70;34.87;;;10.20;95.20;;;;;;4979670;28;20174;-92
2023/01/02 03:33:11;;;;;;;37.77;34.63;;;10.20;95.20;;;;;;4979277;28;20194;-92
2023/01/02 03:35:43;;;;;;;37.77;34.60;;;10.20;95.20;;;;;;4980489;28;20169;-91
2023/01/02 03:38:14;;;;;;;39.43;35.30;;;10.30;95.20;;;;;;4980586;28;20284;-91
2023/01/02 03:40:46;;;;;;;38.53;35.07;;;10.30;95.10;;;;;;4979199;28;20224;-91
2023/01/02 03:43:19;;;;;;;36.67;33.47;;;10.30;95.10;;;;;;4979933;28;20289;-91
2023/01/02 03:45:53;;;;;;;35.90;32.63;;;10.30;95.00;;;;;;4980305;28;20170;-92
2023/01/02 03:48:24;;;;;;;35.10;32.23;;;10.30;95.00;;;;;;4982726;28;20172;-92
2023/01/02 03:50:53;;;;;;;35.40;32.50;;;10.30;95.00;;;;;;4982952;28;20253;-92
2023/01/02 03:53:20;;;;;;;35.33;32.53;;;10.30;94.90;;;;;;4981110;28;20628;-92
2023/01/02 03:56:17;;;;;;;34.53;31.70;;;10.40;95.00;;;;;;4981565;28;20244;-92
2023/01/02 03:59:00;;;;;;;33.20;30.50;;;10.30;94.90;;;;;;4980353;28;20174;-91
2023/01/02 04:01:38;;;;;;;33.90;30.60;;;10.50;94.90;;;;;;4982251;28;20171;-91
2023/01/02 04:04:12;;;;;;;33.00;29.77;;;10.50;94.80;;;;;;4986438;28;20170;-91
2023/01/02 04:06:41;;;;;;;25.87;22.13;;;10.50;94.80;;;;;;4987406;28;20162;-92
2023/01/02 04:09:12;;;;;;;23.70;19.90;;;10.60;94.60;;;;;;4986644;28;20569;-92
2023/01/02 04:11:41;;;;;;;20.30;18.30;;;10.80;94.40;;;;;;4987532;28;20190;-91
2023/01/02 04:14:15;;;;;;;20.60;16.03;;;10.90;94.00;;;;;;4989441;28;20521;-91
2023/01/02 04:16:43;;;;;;;23.20;17.57;;;11.00;93.60;;;;;;4992066;28;20166;-92
2023/01/02 04:19:23;;;;;;;19.60;17.07;;;11.10;93.40;;;;;;4992797;28;20216;-91
2023/01/02 04:21:51;;;;;;;20.60;16.73;;;11.20;93.30;;;;;;4992037;28;20202;-91
2023/01/02 04:24:21;;;;;;;22.27;15.60;;;11.30;92.90;;;;;;4991694;28;20182;-91
2023/01/02 04:27:02;;;;;;;16.53;14.83;;;11.30;92.70;;;;;;5011176;28;20648;-91
2023/01/02 04:29:28;;;;;;;18.53;15.20;;;11.40;92.50;;;;;;4993853;28;20170;-91
2023/01/02 04:32:15;;;;;;;19.40;14.33;;;11.40;92.40;;;;;;4998540;28;20209;-92
2023/01/02 04:34:42;;;;;;;17.30;13.27;;;11.50;92.30;;;;;;5000822;28;20159;-92
2023/01/02 04:37:08;;;;;;;26.60;15.50;;;11.50;92.30;;;;;;5001156;28;20261;-92
2023/01/02 04:39:35;;;;;;;15.10;13.60;;;11.60;92.10;;;;;;5000161;28;20174;-92
2023/01/02 04:42:01;;;;;;;20.47;15.17;;;11.60;92.00;;;;;;4999324;28;20253;-92
2023/01/02 04:44:27;;;;;;;20.70;14.43;;;11.60;92.00;;;;;;5000302;28;20189;-92
2023/01/02 04:46:52;;;;;;;22.33;14.40;;;11.60;92.00;;;;;;4997599;28;20186;-92
2023/01/02 04:49:18;;;;;;;20.87;14.40;;;11.70;92.10;;;;;;4991991;28;20186;-92
2023/01/02 04:51:49;;;;;;;17.97;14.23;;;11.70;92.10;;;;;;4995412;28;20224;-92
2023/01/02 04:54:15;;;;;;;16.67;14.73;;;11.70;92.20;;;;;;4996537;28;20170;-92
2023/01/02 04:56:40;;;;;;;19.43;15.27;;;11.60;92.30;;;;;;4997541;28;20232;-94
2023/01/02 04:59:06;;;;;;;20.43;15.60;;;11.60;92.50;;;;;;4995332;28;20178;-92
2023/01/02 05:01:31;;;;;;;21.73;17.20;;;11.60;92.80;;;;;;4996395;28;20190;-92
2023/01/02 05:03:57;;;;;;;21.47;17.87;;;11.60;93.00;;;;;;5000547;28;20174;-92
2023/01/02 05:06:22;;;;;;;19.83;17.50;;;11.50;93.20;;;;;;4991628;28;20178;-93
2023/01/02 05:08:48;;;;;;;24.20;18.17;;;11.50;93.40;;;;;;4989761;28;20201;-93
2023/01/02 05:11:16;;;;;;;24.23;19.00;;;11.50;93.60;;;;;;4991659;28;20217;-93
2023/01/02 05:13:42;;;;;;;23.33;18.23;;;11.50;93.70;;;;;;4990033;28;20198;-92
2023/01/02 05:16:08;;;;;;;25.47;19.13;;;11.50;93.70;;;;;;4989221;28;20667;-93
2023/01/02 05:18:34;;;;;;;21.77;17.27;;;11.40;93.70;;;;;;4991303;28;20178;-92
2023/01/02 05:21:01;;;;;;;21.00;17.97;;;11.40;93.90;;;;;;4988442;28;20241;-92
2023/01/02 05:26:11;;;;;;;23.37;17.53;;;11.50;93.80;;;;;;5014896;28;20215;-93
2023/01/02 05:28:36;;;;;;;21.57;16.43;;;11.50;93.80;;;;;;4997771;28;20185;-92
2023/01/02 05:31:02;;;;;;;20.90;17.37;;;11.50;93.80;;;;;;4993105;28;20213;-92
2023/01/02 05:33:28;;;;;;;20.03;18.00;;;11.50;93.80;;;;;;5000282;28;20213;-91
2023/01/02 05:35:53;;;;;;;25.43;18.57;;;11.50;93.80;;;;;;4999870;28;20602;-92
2023/01/02 05:38:19;;;;;;;23.70;18.73;;;11.50;93.90;;;;;;4997716;28;20198;-92
2023/01/02 05:40:44;;;;;;;17.93;16.07;;;11.50;93.80;;;;;;4996012;28;20178;-91
2023/01/02 05:43:10;;;;;;;22.20;18.23;;;11.60;93.70;;;;;;4996586;28;20241;-92
2023/01/02 05:45:36;;;;;;;23.90;18.27;;;11.60;93.60;;;;;;4995494;28;20363;-92
2023/01/02 05:48:01;;;;;;;24.40;18.60;;;11.60;93.70;;;;;;4995709;28;20185;-91
2023/01/02 05:50:27;;;;;;;20.77;17.97;;;11.60;93.60;;;;;;4998350;28;20178;-92
2023/01/02 05:52:54;;;;;;;28.17;18.67;;;11.60;93.50;;;;;;4995284;28;20203;-91
2023/01/02 05:55:20;;;;;;;20.93;19.07;;;11.60;93.60;;;;;;4996559;28;20213;-91
2023/01/02 05:57:46;;;;;;;24.67;19.33;;;11.60;93.60;;;;;;4997193;28;20178;-91
2023/01/02 06:00:12;;;;;;;21.73;19.60;;;11.60;93.60;;;;;;4997157;28;20213;-92
2023/01/02 06:02:37;;;;;;;22.07;19.63;;;11.70;93.60;;;;;;4996726;28;20208;-93
2023/01/02 06:05:07;;;;;;;28.60;19.63;;;11.60;93.50;;;;;;4997545;28;20212;-93
2023/01/02 06:07:32;;;;;;;21.50;19.33;;;11.70;93.50;;;;;;4997789;28;20189;-93
2023/01/02 06:09:58;;;;;;;27.53;18.67;;;11.70;93.40;;;;;;5014438;28;20178;-93
2023/01/02 06:12:23;;;;;;;20.10;18.33;;;11.60;93.40;;;;;;4997832;28;20221;-91
2023/01/02 06:14:49;;;;;;;22.60;20.40;;;11.60;93.60;;;;;;4996829;28;20178;-92
2023/01/02 06:17:15;;;;;;;22.50;19.87;;;11.70;93.50;;;;;;4999508;28;20190;-92
2023/01/02 06:19:40;;;;;;;22.47;20.27;;;11.70;93.50;;;;;;4997291;28;20189;-92
2023/01/02 06:22:06;;;;;;;19.80;17.93;;;11.70;93.50;;;;;;5000417;28;20277;-92
2023/01/02 06:24:31;;;;;;;22.53;19.50;;;11.70;93.40;;;;;;4996878;28;20182;-92
2023/01/02 06:26:57;;;;;;;20.80;19.10;;;11.80;93.40;;;;;;4997606;28;20182;-92
2023/01/02 06:29:22;;;;;;;20.93;19.07;;;11.70;93.40;;;;;;4998906;28;20164;-93
2023/01/02 06:31:48;;;;;;;21.73;19.63;;;11.80;93.40;;;;;;4998266;28;20198;-92
2023/01/02 06:34:16;;;;;;;22.10;19.80;;;11.80;93.50;;;;;;4995531;28;20173;-92
2023/01/02 06:36:42;;;;;;;22.60;20.30;;;11.80;93.60;;;;;;4994386;28;20178;-92
2023/01/02 06:39:07;;;;;;;22.80;20.63;;;11.80;93.60;;;;;;4997334;28;20213;-93
2023/01/02 06:41:33;;;;;;;20.70;18.87;;;11.80;93.60;;;;;;4995518;28;20205;-92
2023/01/02 06:43:58;;;;;;;22.90;20.70;;;11.80;93.70;;;;;;4997647;28;20186;-94
2023/01/02 06:46:24;;;;;;;22.80;20.03;;;11.80;93.80;;;;;;4999561;28;20193;-94
2023/01/02 06:48:50;;;;;;;26.17;22.73;;;11.90;93.80;;;;;;4998663;28;20210;-93
2023/01/02 06:51:18;;;;;;;27.40;22.60;;;11.90;93.90;;;;;;4999195;28;20206;-93
2023/01/02 06:53:45;;;;;;;25.47;22.57;;;11.90;93.90;;;;;;4997992;28;20222;-92
2023/01/02 06:56:11;;;;;;;25.07;22.50;;;11.90;94.00;;;;;;4992523;28;20182;-93
2023/01/02 06:58:37;;;;;;;27.20;23.50;;;11.80;94.10;;;;;;4992777;28;20276;-93
2023/01/02 07:01:07;;;;;;;25.10;22.70;;;11.80;94.20;;;;;;4994100;28;20182;-92
2023/01/02 07:03:33;;;;;;;27.50;24.17;;;11.80;94.30;;;;;;5011085;28;20190;-93
2023/01/02 07:06:03;;;;;;;27.50;24.60;;;11.80;94.40;;;;;;4995396;28;20189;-93
2023/01/02 07:11:18;;;;;;;26.60;24.07;;;11.80;94.40;;;;;;5035961;28;20228;-91
2023/01/02 07:13:49;;;;;;;28.30;25.33;;;11.80;94.40;;;;;;5018694;28;20225;-92
2023/01/02 07:16:18;;;;;;;27.83;24.97;;;11.80;94.40;;;;;;5020513;28;20237;-92
2023/01/02 07:18:44;;;;;;;25.87;23.40;;;11.80;94.40;;;;;;5014871;28;20174;-92
2023/01/02 07:21:11;;;;;;;27.03;24.40;;;11.80;94.30;;;;;;5016201;28;20248;-92
2023/01/02 07:23:37;;;;;;;27.07;24.40;;;11.80;94.30;;;;;;5016180;28;20220;-92
2023/01/02 07:26:05;;;;;;;28.33;24.30;;;11.80;94.20;;;;;;5018410;28;20181;-92
2023/01/02 07:28:31;;;;;;;28.67;20.13;;;11.90;94.20;;;;;;5016134;28;20182;-92
2023/01/02 07:30:59;;;;;;;24.23;21.73;;;11.90;94.20;;;;;;5005126;28;20224;-92
2023/01/02 07:33:27;;;;;;;23.73;21.10;;;11.90;94.20;;;;;;5004748;28;20227;-92
2023/01/02 07:35:59;;;;;;;26.57;23.33;;;11.90;94.30;;;;;;5013452;28;20208;-92
2023/01/02 07:38:25;;;;;;;26.30;23.73;;;11.80;94.40;;;;;;5018749;28;20230;-92
2023/01/02 07:40:56;;;;;;;29.63;25.63;;;11.90;94.60;;;;;;5020214;28;20181;-93
2023/01/02 07:43:22;;;;;;;30.00;27.17;;;11.80;94.60;;;;;;5019777;28;20207;-92
2023/01/02 07:45:48;;;;;;;30.33;27.53;;;11.80;94.70;;;;;;5019315;28;20193;-92
2023/01/02 07:48:14;;;;;;;31.07;27.80;;;11.80;94.70;;;;;;5018572;28;20177;-91
2023/01/02 07:50:40;;;;;;;26.77;24.47;;;11.80;94.70;;;;;;5018235;28;20197;-92
2023/01/02 07:53:05;;;;;;;30.00;27.17;;;11.80;94.60;;;;;;5014963;28;20208;-93
2023/01/02 07:55:32;;;;;;;31.03;28.10;;;11.80;94.40;;;;;;5016683;28;20184;-93
2023/01/02 07:58:01;;;;;;;34.77;30.20;;;11.80;94.30;;;;;;5016667;28;20177;-92
2023/01/02 08:01:14;;;;;;;35.23;32.33;;;11.90;94.20;;;;;;5019098;28;20162;-92
2023/01/02 08:11:25;;;;;;;37.73;34.10;;;11.90;93.90;;;;;;5025017;28;20221;-92
2023/01/02 08:13:51;;;;;;;39.20;36.00;;;11.90;93.90;;;;;;5010960;28;20224;-90
2023/01/02 08:16:20;;;;;;;36.97;33.67;;;12.00;93.80;;;;;;5003889;28;20225;-92
2023/01/02 08:18:46;;;;;;;35.83;32.70;;;12.00;93.70;;;;;;5011995;28;20157;-93
2023/01/02 08:21:12;;;;;;;36.63;33.20;;;12.00;93.70;;;;;;5014737;28;20184;-92
2023/01/02 08:23:38;;;;;;;38.20;34.90;;;12.00;93.70;;;;;;5010131;28;20283;-92
2023/01/02 08:26:09;;;;;;;35.83;33.23;;;12.00;93.60;;;;;;5013044;28;20208;-93
2023/01/02 08:28:36;;;;;;;36.10;33.00;;;12.00;93.70;;;;;;5011989;28;20279;-92
2023/01/02 08:31:07;;;;;;;26.53;24.33;;;12.00;93.70;;;;;;5007256;28;20221;-92
2023/01/02 08:33:33;;;;;;;27.03;24.37;;;12.10;93.40;;;;;;5005443;28;20198;-92
2023/01/02 08:35:59;;;;;;;26.30;24.10;;;12.00;93.50;;;;;;5009060;28;20185;-92
2023/01/02 08:38:24;;;;;;;24.80;22.50;;;12.00;93.50;;;;;;5005003;28;20204;-92
2023/01/02 08:40:50;;;;;;;26.87;24.13;;;12.10;93.20;;;;;;5009398;28;20178;-92
2023/01/02 08:43:16;;;;;;;24.30;22.27;;;12.10;93.20;;;;;;5026422;28;20193;-92
2023/01/02 08:45:41;;;;;;;24.93;22.30;;;12.20;93.20;;;;;;5007496;28;20177;-91
2023/01/02 08:48:07;;;;;;;24.80;22.83;;;12.10;93.20;;;;;;4999687;28;20177;-92
2023/01/02 08:50:32;;;;;;;24.00;22.00;;;12.20;93.00;;;;;;5001166;28;20187;-92
2023/01/02 08:52:58;;;;;;;24.87;22.73;;;12.30;92.80;;;;;;5002470;28;20204;-92
2023/01/02 08:55:23;;;;;;;28.47;25.63;;;12.20;92.90;;;;;;5002484;28;20181;-91
2023/01/02 08:57:49;;;;;;;28.50;26.00;;;12.20;92.90;;;;;;5007964;28;20178;-92
2023/01/02 09:00:15;;;;;;;26.33;24.37;;;12.20;92.90;;;;;;5009447;28;20181;-92
2023/01/02 09:13:59;;;;;;;27.10;25.00;;;12.30;92.90;;;;;;5255456;22;20242;-91
2023/01/02 09:16:25;;;;;;;25.00;22.97;;;12.30;92.90;;;;;;5048955;28;20169;-92
2023/01/02 09:18:52;;;;;;;26.97;24.10;;;12.30;92.70;;;;;;5046069;28;20326;-92
2023/01/02 09:21:17;;;;;;;25.87;23.47;;;12.30;92.50;;;;;;5049315;28;20181;-91
2023/01/02 09:23:45;;;;;;;23.77;21.97;;;12.30;92.50;;;;;;5049847;28;20200;-92
2023/01/02 09:26:11;;;;;;;23.93;21.93;;;12.30;92.40;;;;;;5047663;28;20176;-91
2023/01/02 09:28:37;;;;;;;23.30;21.03;;;12.30;92.40;;;;;;5051983;28;20194;-91
2023/01/02 09:31:05;;;;;;;24.67;22.27;;;12.30;92.20;;;;;;5048613;28;20212;-92
2023/01/02 09:33:30;;;;;;;25.77;23.57;;;12.40;92.00;;;;;;5055430;28;20272;-92
2023/01/02 09:36:03;;;;;;;24.97;22.63;;;12.40;92.10;;;;;;5052565;28;20180;-92
2023/01/02 09:38:31;;;;;;;24.47;21.27;;;12.40;91.90;;;;;;5049249;28;20165;-91
2023/01/02 09:40:59;;;;;;;21.90;19.87;;;12.40;91.80;;;;;;5049608;28;20208;-91
2023/01/02 09:43:35;;;;;;;23.60;21.23;;;12.50;91.70;;;;;;5051328;28;20209;-91
2023/01/02 09:46:04;;;;;;;21.57;18.10;;;12.50;91.70;;;;;;5050494;28;20168;-92
2023/01/02 09:48:33;;;;;;;22.53;20.17;;;12.60;91.30;;;;;;5051561;28;20275;-91
2023/01/02 09:51:00;;;;;;;21.93;20.03;;;12.60;91.20;;;;;;5049572;28;20213;-92
2023/01/02 09:53:26;;;;;;;20.07;18.33;;;12.60;90.80;;;;;;5049412;28;20201;-92
2023/01/02 09:56:00;;;;;;;19.90;18.27;;;12.60;90.60;;;;;;5048859;28;20181;-92
2023/01/02 09:58:44;;;;;;;20.50;18.30;;;12.60;90.40;;;;;;5047849;28;20176;-92
2023/01/02 10:01:22;;;;;;;19.10;17.47;;;12.60;90.50;;;;;;5051139;28;20177;-92
2023/01/02 10:04:06;;;;;;;18.70;16.97;;;12.50;90.70;;;;;;5054231;28;20203;-92
2023/01/02 10:06:44;;;;;;;18.20;16.70;;;12.50;90.90;;;;;;5046699;28;20172;-92
2023/01/02 10:09:40;;;;;;;18.37;16.23;;;12.50;90.60;;;;;;5048226;28;20200;-92
2023/01/02 10:12:28;;;;;;;26.97;17.70;;;12.50;90.70;;;;;;5049715;28;20276;-92
2023/01/02 10:15:06;;;;;;;19.13;17.17;;;12.40;90.90;;;;;;5051946;28;20230;-92
2023/01/02 10:17:38;;;;;;;17.87;16.37;;;12.30;91.00;;;;;;5048877;28;20283;-92
2023/01/02 10:20:13;;;;;;;19.63;18.20;;;12.40;90.80;;;;;;5050805;28;20204;-92
2023/01/02 10:22:50;;;;;;;18.93;17.00;;;12.30;91.20;;;;;;5051833;28;20200;-92
2023/01/02 10:25:25;;;;;;;18.60;17.00;;;12.30;91.40;;;;;;5047543;28;20177;-92
2023/01/02 10:28:34;;;;;;;20.23;18.33;;;12.20;91.70;;;;;;5046347;28;20191;-92
2023/01/02 10:31:11;;;;;;;21.77;19.53;;;12.10;91.90;;;;;;5032753;28;20266;-91
2023/01/02 10:41:24;;;;;;;23.20;21.10;;;11.90;92.70;;;;;;4365441;26;20226;-92
2023/01/02 10:43:54;;;;;;;25.33;21.40;;;11.90;93.00;;;;;;5035523;28;20299;-90
2023/01/02 10:46:20;;;;;;;37.50;34.80;;;11.90;93.30;;;;;;5035900;28;20176;-90
2023/01/02 10:48:47;;;;;;;29.43;27.53;;;11.80;93.70;;;;;;5034685;28;20168;-90
2023/01/02 10:51:15;;;;;;;26.20;24.40;;;11.50;93.40;;;;;;5035835;28;20201;-90
2023/01/02 10:53:41;;;;;;;23.67;22.13;;;11.50;93.30;;;;;;5035485;28;20260;-90
2023/01/02 10:56:19;;;;;;;19.80;18.63;;;11.40;93.30;;;;;;5052658;28;20160;-90
2023/01/02 10:58:52;;;;;;;20.20;18.67;;;11.40;93.30;;;;;;5057204;28;20175;-92
2023/01/02 11:01:51;;;;;;;20.20;18.90;;;11.40;93.50;;;;;;5057292;28;20165;-91
2023/01/02 11:04:41;;;;;;;21.70;20.27;;;11.40;93.50;;;;;;5055351;28;20181;-91
2023/01/02 11:07:24;;;;;;;22.27;20.93;;;11.30;93.40;;;;;;5212879;22;20252;-92
2023/01/02 11:12:25;;;;;;;19.40;18.30;;;10.70;92.60;;;;;;5090768;22;20232;-93
2023/01/02 11:15:09;;;;;;;19.07;18.07;;;10.40;92.20;;;;;;5009256;28;20178;-92
2023/01/02 11:17:41;;;;;;;18.20;17.10;;;10.30;91.90;;;;;;5009603;28;20172;-92
2023/01/02 11:20:24;;;;;;;16.63;15.63;;;10.30;91.70;;;;;;5004505;28;20158;-91
2023/01/02 11:22:50;;;;;;;15.50;14.63;;;10.30;91.90;;;;;;4999685;28;20201;-90
2023/01/02 11:25:25;;;;;;;18.27;17.27;;;10.20;92.00;;;;;;5016788;28;20180;-92
2023/01/02 11:27:55;;;;;;;16.53;15.63;;;10.20;91.90;;;;;;5002532;28;20569;-93
2023/01/02 11:30:49;;;;;;;17.47;16.37;;;10.10;92.00;;;;;;5021209;28;20237;-92
2023/01/02 11:33:28;;;;;;;17.00;16.00;;;10.10;92.10;;;;;;5006540;28;20209;-92
2023/01/02 12:07:42;;;;;;;19.97;18.67;;;9.30;92.90;;;;;;5033816;22;20259;-91
2023/01/02 12:10:21;;;;;;;20.50;19.00;;;9.20;92.80;;;;;;5009415;28;20185;-91
2023/01/02 12:12:58;;;;;;;20.77;19.37;;;9.20;92.80;;;;;;5012060;28;20212;-91
2023/01/02 12:15:55;;;;;;;19.17;17.30;;;9.20;92.90;;;;;;5012820;28;20197;-92
2023/01/02 12:18:35;;;;;;;18.30;17.10;;;9.10;92.80;;;;;;5007904;28;20166;-92
2023/01/02 12:21:24;;;;;;;17.83;16.70;;;9.00;92.70;;;;;;5000550;28;20169;-91
2023/01/02 12:23:56;;;;;;;17.47;16.03;;;8.90;92.80;;;;;;5005474;28;20196;-91
2023/01/02 12:26:57;;;;;;;18.73;16.97;;;8.80;93.00;;;;;;5004568;28;20177;-91
2023/01/02 12:29:49;;;;;;;18.13;17.03;;;8.80;93.10;;;;;;5001896;28;20166;-91
2023/01/02 12:32:46;;;;;;;20.40;18.90;;;8.80;93.30;;;;;;5021884;28;20212;-90
2023/01/02 12:35:30;;;;;;;20.80;19.50;;;8.70;93.50;;;;;;5004887;28;20648;-91
2023/01/02 12:38:04;;;;;;;19.50;18.30;;;8.70;93.80;;;;;;5007875;28;20197;-90
2023/01/02 12:41:14;;;;;;;19.70;18.30;;;8.70;94.00;;;;;;5015243;28;20667;-91
2023/01/02 12:46:53;;;;;;;19.50;18.23;;;8.80;94.00;;;;;;5149371;22;20316;-90
2023/01/02 12:50:05;;;;;;;17.87;16.67;;;8.90;94.10;;;;;;5020165;28;20169;-91
2023/01/02 12:56:32;;;;;;;22.80;21.27;;;8.80;94.10;;;;;;5039195;28;20186;-91
2023/01/02 12:59:09;;;;;;;19.37;18.17;;;8.70;93.90;;;;;;5018663;28;20150;-91
2023/01/02 14:25:01;;;;;;;23.10;21.40;;;8.30;94.60;;;;;;5650611;22;20259;-91
2023/01/02 14:27:51;;;;;;;25.53;23.40;;;8.30;94.60;;;;;;4922237;28;20188;-93
2023/01/02 14:30:29;;;;;;;24.13;22.43;;;8.20;94.60;;;;;;4934452;28;20207;-93
2023/01/02 14:32:59;;;;;;;26.13;24.43;;;8.20;94.60;;;;;;5013396;28;20217;-91
2023/01/02 14:35:57;;;;;;;;;;;;;;;;;;;;;
2023/01/02 14:39:08;;;;;;;;;;;;;;;;;;;;;
2023/01/02 14:54:49;;;;;;;23.70;21.97;;;8.20;94.10;;;;;;2532614;22;20540;-92
2023/01/02 14:57:24;;;;;;;23.00;21.03;;;8.20;94.10;;;;;;5020953;28;20210;-90
2023/01/02 14:59:52;;;;;;;21.20;19.83;;;8.20;94.10;;;;;;5020067;28;20161;-93
2023/01/02 15:02:22;;;;;;;25.73;23.70;;;8.20;94.10;;;;;;5016947;28;20193;-93
2023/01/02 15:04:53;;;;;;;24.07;22.23;;;8.20;94.10;;;;;;5016242;28;20177;-93
2023/01/02 15:07:41;;;;;;;26.83;24.77;;;8.20;94.10;;;;;;5020194;28;20154;-92
2023/01/02 15:10:14;;;;;;;25.83;24.33;;;8.20;94.10;;;;;;5019274;28;20162;-92
2023/01/02 15:13:02;;;;;;;27.73;25.73;;;8.20;94.10;;;;;;5019650;28;20221;-92
2023/01/02 15:15:47;;;;;;;24.83;23.10;;;8.20;94.10;;;;;;5017193;28;20161;-93
2023/01/02 15:18:50;;;;;;;26.90;25.00;;;8.20;94.10;;;;;;5014139;28;20189;-94
2023/01/02 15:21:28;;;;;;;27.43;25.70;;;8.20;94.20;;;;;;4995530;28;20276;-92
2023/01/02 15:23:59;;;;;;;29.27;27.37;;;8.20;94.20;;;;;;5013854;28;20192;-93
2023/01/02 15:26:44;;;;;;;27.27;25.47;;;8.20;94.20;;;;;;5014944;28;20291;-94
2023/01/02 15:29:52;;;;;;;27.77;25.87;;;8.20;94.10;;;;;;5008693;28;20161;-92
2023/01/02 15:32:32;;;;;;;27.13;25.13;;;8.20;94.00;;;;;;5007566;28;20231;-92
2023/01/02 15:35:39;;;;;;;26.10;24.10;;;8.30;94.00;;;;;;5018485;28;20177;-92
2023/01/02 15:38:25;;;;;;;24.47;22.47;;;8.20;93.90;;;;;;5018251;28;20236;-92
2023/01/02 15:40:57;;;;;;;21.50;19.90;;;8.30;93.60;;;;;;5016800;28;20176;-92
2023/01/02 15:46:19;;;;;;;20.03;18.30;;;8.20;93.10;;;;;;5035786;28;20685;-93
2023/01/02 15:48:46;;;;;;;18.80;17.20;;;8.30;92.80;;;;;;5019715;28;20162;-92
2023/01/02 15:51:22;;;;;;;18.40;16.77;;;8.20;92.70;;;;;;5018689;28;20196;-90
2023/01/02 15:53:53;;;;;;;17.07;15.87;;;8.30;92.60;;;;;;5019284;28;20208;-93
2023/01/02 15:56:42;;;;;;;17.63;15.87;;;8.20;92.30;;;;;;5017889;28;20260;-92
2023/01/02 15:59:38;;;;;;;14.80;13.43;;;8.30;92.30;;;;;;5020851;28;20169;-91
2023/01/02 16:02:08;;;;;;;14.30;13.00;;;8.30;92.40;;;;;;5020549;28;20200;-92
2023/01/02 16:04:42;;;;;;;13.70;12.57;;;8.20;92.20;;;;;;5020430;28;20295;-91
2023/01/02 16:07:36;;;;;;;14.07;12.53;;;8.20;92.20;;;;;;5022678;28;20161;-90
2023/01/02 16:10:18;;;;;;;13.70;12.37;;;8.20;92.00;;;;;;5025485;28;20229;-91
2023/01/02 16:12:51;;;;;;;12.90;11.70;;;8.20;91.90;;;;;;5025014;28;20228;-92
2023/01/02 16:15:30;;;;;;;14.37;13.13;;;8.20;91.80;;;;;;5024190;28;20157;-89
2023/01/02 16:18:03;;;;;;;13.77;12.63;;;8.10;91.70;;;;;;5022014;28;20177;-92
2023/01/02 16:20:39;;;;;;;13.60;12.30;;;8.10;91.80;;;;;;5014780;28;20621;-92
2023/01/02 16:23:21;;;;;;;13.90;12.87;;;8.10;91.90;;;;;;5032504;28;20220;-92
2023/01/02 16:26:05;;;;;;;12.97;11.83;;;8.10;91.90;;;;;;5013003;28;20233;-92
2023/01/02 16:31:23;;;;;;;14.33;13.13;;;8.20;92.00;;;;;;5291216;22;20238;-92
2023/01/02 16:36:44;;;;;;;14.50;13.40;;;8.20;92.40;;;;;;5051225;22;20224;-90
2023/01/02 17:41:17;;;;;;;16.63;14.27;;;8.20;92.60;;;;;;1234485;22;20236;-91
2023/01/02 17:43:50;;;;;;;14.10;13.10;;;8.20;92.60;;;;;;5054250;23;20228;-92
2023/01/02 18:01:48;;;;;;;17.53;15.23;;;8.30;92.30;;;;;;4366225;26;21388;-93
2023/01/02 18:04:14;;;;;;;15.93;14.40;;;8.30;92.30;;;;;;5023461;28;20204;-91
2023/01/02 18:06:39;;;;;;;17.40;14.13;;;8.30;92.40;;;;;;5039539;28;20156;-91
2023/01/02 18:19:05;;;;;;;;;;;;;;;;;;;;;
2023/01/02 18:21:34;;;;;;;15.57;13.93;;;8.30;92.10;;;;;;4960834;28;20227;-92
2023/01/02 18:24:01;;;;;;;20.33;15.40;;;8.30;92.10;;;;;;5022897;28;20211;-93
2023/01/02 18:26:32;;;;;;;22.17;15.67;;;8.30;92.00;;;;;;5022791;28;20185;-93
2023/01/02 18:29:13;;;;;;;20.30;14.17;;;8.30;91.90;;;;;;5050977;23;20217;-93